Nissho Maru — JD2650 — position and weather

sailwx.info

Track history (hours):
 
Tides and Currents Weather Stations Pressure Air Temp Water Temp Dewpoint Dewpoint Depression Visibility Wind Speed Wind Dir Waves Ship Positions

Nissho Maru

Last reported at 2017-Aug-19 15:56 UTC. Time now 2017-Aug-24 08:49 UTC.
Position N 35°07' E 139°45'.

Length 75 m; draft 4 m.

Type: Cargo ship. MMSI: 431000572.

Date/timePositionNaut miles runAvg speedWind from/ knotsBaromVisibWave heightAir tempDewpointWater temp
2017-Aug-19 15:56N 35°07' E 139°45'512.8
2017-Aug-19 15:30N 35°12' E 139°46'611.4
2017-Aug-19 15:01N 35°18' E 139°44'1010.2
2017-Aug-19 14:01N 35°28' E 139°48'16 1.1
2017-Aug-18 23:03N 35°36' E 140°05'2 6.8
2017-Aug-18 22:49N 35°35' E 140°04'2 5.2
2017-Aug-18 22:29N 35°34' E 140°02'510.5
2017-Aug-18 22:00N 35°31' E 139°57'612.3
2017-Aug-18 21:30N 35°28' E 139°51'611.8
2017-Aug-18 21:00N 35°26' E 139°44'5 9.5
2017-Aug-18 20:30N 35°29' E 139°39'0 0.1
2017-Aug-18 19:59N 35°29' E 139°39'0 0.0
2017-Aug-18 19:29N 35°29' E 139°39'0 0.0
2017-Aug-18 18:59N 35°29' E 139°39'0 0.0
2017-Aug-18 18:29N 35°29' E 139°39'0 0.0
2017-Aug-18 17:59N 35°29' E 139°39'0 0.0
2017-Aug-18 17:29N 35°29' E 139°39'0 0.0
2017-Aug-18 16:59N 35°29' E 139°39'0 0.0
2017-Aug-18 16:29N 35°29' E 139°39'0 0.0
2017-Aug-18 15:59N 35°29' E 139°39'0 0.0
2017-Aug-18 15:29N 35°29' E 139°39'0 0.0
2017-Aug-18 14:59N 35°29' E 139°39'0 0.0
2017-Aug-18 14:29N 35°29' E 139°39'0 0.0
2017-Aug-18 13:29N 35°29' E 139°39'0 0.0
2017-Aug-18 12:59N 35°29' E 139°39'0 0.0
2017-Aug-18 12:29N 35°29' E 139°39'0 0.0
2017-Aug-18 11:59N 35°29' E 139°39'0 0.0
2017-Aug-18 11:29N 35°29' E 139°39'0 0.1
2017-Aug-18 11:01N 35°29' E 139°39'3 6.2
2017-Aug-18 10:30N 35°27' E 139°42'4 8.6
2017-Aug-18 10:00N 35°28' E 139°47'4 7.5
2017-Aug-18 09:30N 35°29' E 139°51'610.3
2017-Aug-18 08:54N 35°29' E 139°59'0 0.0
2017-Aug-17 22:24N 35°29' E 139°59'4 8.8
2017-Aug-17 22:00N 35°29' E 139°54'611.5
2017-Aug-17 21:30N 35°26' E 139°48'611.3
2017-Aug-17 21:00N 35°21' E 139°45'5 9.9
2017-Aug-17 20:30N 35°16' E 139°46'510.3
2017-Aug-17 20:00N 35°11' E 139°47'611.6
2017-Aug-17 19:30N 35°05' E 139°45'612.6
2017-Aug-17 19:00N 34°59' E 139°44'  
Track history (hours):
 
Tides and Currents Weather Stations Pressure Air Temp Water Temp Dewpoint Dewpoint Depression Visibility Wind Speed Wind Dir Waves Ship Positions

Nissho Maru

Last reported at 2017-Aug-19 15:56 UTC. Time now 2017-Aug-24 08:49 UTC.
Position N 35°07' E 139°45'.

Length 75 m; draft 4 m.

Type: Cargo ship. MMSI: 431000572.

Date/timePositionNaut miles runAvg speedWind from/ knotsBaromVisibWave heightAir tempDewpointWater temp
2017-Aug-19 15:56N 35°07' E 139°45'512.8
2017-Aug-19 15:30N 35°12' E 139°46'611.4
2017-Aug-19 15:01N 35°18' E 139°44'1010.2
2017-Aug-19 14:01N 35°28' E 139°48'16 1.1
2017-Aug-18 23:03N 35°36' E 140°05'2 6.8
2017-Aug-18 22:49N 35°35' E 140°04'2 5.2
2017-Aug-18 22:29N 35°34' E 140°02'510.5
2017-Aug-18 22:00N 35°31' E 139°57'612.3
2017-Aug-18 21:30N 35°28' E 139°51'611.8
2017-Aug-18 21:00N 35°26' E 139°44'5 9.5
2017-Aug-18 20:30N 35°29' E 139°39'0 0.1
2017-Aug-18 19:59N 35°29' E 139°39'0 0.0
2017-Aug-18 19:29N 35°29' E 139°39'0 0.0
2017-Aug-18 18:59N 35°29' E 139°39'0 0.0
2017-Aug-18 18:29N 35°29' E 139°39'0 0.0
2017-Aug-18 17:59N 35°29' E 139°39'0 0.0
2017-Aug-18 17:29N 35°29' E 139°39'0 0.0
2017-Aug-18 16:59N 35°29' E 139°39'0 0.0
2017-Aug-18 16:29N 35°29' E 139°39'0 0.0
2017-Aug-18 15:59N 35°29' E 139°39'0 0.0
2017-Aug-18 15:29N 35°29' E 139°39'0 0.0
2017-Aug-18 14:59N 35°29' E 139°39'0 0.0
2017-Aug-18 14:29N 35°29' E 139°39'0 0.0
2017-Aug-18 13:29N 35°29' E 139°39'0 0.0
2017-Aug-18 12:59N 35°29' E 139°39'0 0.0
2017-Aug-18 12:29N 35°29' E 139°39'0 0.0
2017-Aug-18 11:59N 35°29' E 139°39'0 0.0
2017-Aug-18 11:29N 35°29' E 139°39'0 0.1
2017-Aug-18 11:01N 35°29' E 139°39'3 6.2
2017-Aug-18 10:30N 35°27' E 139°42'4 8.6
2017-Aug-18 10:00N 35°28' E 139°47'4 7.5
2017-Aug-18 09:30N 35°29' E 139°51'610.3
2017-Aug-18 08:54N 35°29' E 139°59'0 0.0
2017-Aug-17 22:24N 35°29' E 139°59'4 8.8
2017-Aug-17 22:00N 35°29' E 139°54'611.5
2017-Aug-17 21:30N 35°26' E 139°48'611.3
2017-Aug-17 21:00N 35°21' E 139°45'5 9.9
2017-Aug-17 20:30N 35°16' E 139°46'510.3
2017-Aug-17 20:00N 35°11' E 139°47'611.6
2017-Aug-17 19:30N 35°05' E 139°45'612.6
2017-Aug-17 19:00N 34°59' E 139°44'  

Dump ship's entire track history